GB-0484 weather

Birds Edge Airstrip
England, United Kingdom

Public forecast

Using degrees Celsius for public forecast. Weather courtesy of forecast.io.

Closest aviation weather report (METAR) to Birds Edge Airstrip

Closest report is Leeds Bradford Airport, 18.0 nm (33.3 km) N. Retrieved 2019/11/14 15:20 UTC (0 seconds ago):

EGNM 141520Z 03010G20KT 360V060 9999 -DZ FEW020 05/03 Q1003

Closest aviation forecast (TAF) to Birds Edge Airstrip

Closest forecast is Leeds Bradford Airport, 18.0 nm (33.3 km) N. Retrieved 2019/11/14 12:00 UTC (3 hours ago):

TAF EGNM 141102Z 1412/1512 02014KT 9999 SCT025 TEMPO 1412/1424 04017G27KT PROB30 TEMPO 1412/1413 8000 -RA BKN012 BECMG 1413/1416 SCT006 BKN010 TEMPO 1415/1501 6000 RA BKN006 PROB40 TEMPO 1415/1421 3000 +RA BKN003 PROB40 TEMPO 1501/1506 2000 RADZ BKN003 PROB30 TEMPO 1506/1512 BKN006